createdAt,value
2022-08-18T00:01:15.962Z,11.10
2022-08-18T00:03:55.484Z,11.00
2022-08-18T00:06:30.054Z,11.33
2022-08-18T00:09:03.213Z,11.20
2022-08-18T00:11:40.959Z,11.27
2022-08-18T00:14:21.519Z,10.87
2022-08-18T00:16:52.912Z,10.40
2022-08-18T00:19:20.769Z,10.90
2022-08-18T00:22:08.273Z,11.33
2022-08-18T00:24:48.702Z,11.13
2022-08-18T00:27:28.867Z,11.17
2022-08-18T00:30:01.182Z,10.90
2022-08-18T00:32:33.588Z,10.80
2022-08-18T00:35:14.335Z,10.80
2022-08-18T00:37:42.298Z,10.43
2022-08-18T00:40:13.005Z,10.57
2022-08-18T00:42:47.815Z,10.67
2022-08-18T00:45:23.213Z,10.47
2022-08-18T00:47:50.216Z,10.60
2022-08-18T00:50:38.677Z,10.30
2022-08-18T00:53:11.513Z,10.27
2022-08-18T00:55:43.754Z,10.60
2022-08-18T00:58:32.355Z,10.57
2022-08-18T01:01:06.399Z,10.23
2022-08-18T01:03:36.500Z,10.80
2022-08-18T01:06:15.296Z,10.30
2022-08-18T01:08:42.862Z,10.47
2022-08-18T01:11:10.630Z,10.60
2022-08-18T01:13:41.620Z,10.13
2022-08-18T01:16:27.975Z,10.47
2022-08-18T01:19:13.464Z,10.50
2022-08-18T01:21:53.826Z,10.27
2022-08-18T01:24:49.385Z,10.30
2022-08-18T01:27:18.756Z,10.67
2022-08-18T01:29:48.000Z,10.20
2022-08-18T01:32:19.825Z,10.40
2022-08-18T01:34:48.794Z,10.97
2022-08-18T01:37:22.284Z,10.53
2022-08-18T01:41:25.748Z,10.57
2022-08-18T01:42:38.398Z,10.47
2022-08-18T01:45:08.040Z,10.33
2022-08-18T01:47:47.834Z,10.40
2022-08-18T01:50:23.199Z,10.40
2022-08-18T01:52:53.514Z,10.27
2022-08-18T01:55:21.017Z,11.03
2022-08-18T01:57:47.932Z,10.13
2022-08-18T02:00:17.681Z,10.23
2022-08-18T02:02:47.083Z,10.50
2022-08-18T02:05:33.909Z,10.83
2022-08-18T02:08:00.897Z,10.40
2022-08-18T02:10:28.076Z,10.97
2022-08-18T02:12:55.094Z,10.87
2022-08-18T02:15:21.984Z,10.30
2022-08-18T02:17:49.462Z,10.17
2022-08-18T02:20:19.171Z,11.10
2022-08-18T02:22:47.545Z,11.10
2022-08-18T02:25:16.126Z,10.93
2022-08-18T02:27:44.084Z,10.80
2022-08-18T02:30:15.018Z,10.23
2022-08-18T02:32:42.432Z,10.77
2022-08-18T02:35:11.684Z,10.83
2022-08-18T02:37:42.299Z,10.60
2022-08-18T02:40:21.603Z,10.87
2022-08-18T02:42:49.781Z,11.23
2022-08-18T02:45:16.817Z,9.97
2022-08-18T02:47:44.974Z,10.57
2022-08-18T02:50:13.797Z,11.10
2022-08-18T02:52:41.470Z,10.40
2022-08-18T02:55:09.678Z,11.23
2022-08-18T02:57:42.090Z,11.30
2022-08-18T03:00:12.723Z,11.03
2022-08-18T03:02:40.033Z,11.20
2022-08-18T03:05:10.865Z,10.73
2022-08-18T03:07:41.854Z,10.70
2022-08-18T03:10:31.500Z,10.50
2022-08-18T03:12:56.729Z,10.97
2022-08-18T03:15:23.720Z,11.67
2022-08-18T03:17:53.662Z,11.20
2022-08-18T03:20:30.745Z,11.37
2022-08-18T03:22:58.585Z,11.07
2022-08-18T03:25:25.447Z,10.80
2022-08-18T03:27:52.399Z,10.87
2022-08-18T03:30:19.524Z,10.70
2022-08-18T03:32:47.444Z,11.67
2022-08-18T03:35:14.771Z,11.27
2022-08-18T03:37:41.620Z,11.40
2022-08-18T03:40:10.983Z,11.17
2022-08-18T03:42:38.186Z,11.60
2022-08-18T03:45:17.343Z,10.83
2022-08-18T03:47:46.099Z,11.80
2022-08-18T03:50:13.853Z,11.63
2022-08-18T03:52:41.565Z,11.10
2022-08-18T03:55:09.363Z,10.90
2022-08-18T03:57:39.115Z,11.00
2022-08-18T04:00:06.934Z,11.73
2022-08-18T04:02:33.754Z,11.77
2022-08-18T04:05:00.694Z,12.27
2022-08-18T04:07:27.672Z,11.87
2022-08-18T04:09:54.549Z,11.23
2022-08-18T04:12:21.396Z,11.37
2022-08-18T04:14:50.166Z,11.73
2022-08-18T04:17:25.238Z,11.53
2022-08-18T04:19:54.669Z,12.30
2022-08-18T04:22:22.656Z,12.50
2022-08-18T04:24:50.667Z,12.53
2022-08-18T04:27:19.614Z,12.00
2022-08-18T04:29:47.437Z,12.50
2022-08-18T04:32:15.339Z,11.90
2022-08-18T04:34:42.317Z,11.57
2022-08-18T04:37:09.835Z,12.10
2022-08-18T04:39:37.516Z,12.17
2022-08-18T04:42:05.901Z,12.20
2022-08-18T04:44:33.242Z,12.27
2022-08-18T04:47:01.425Z,12.30
2022-08-18T04:49:28.428Z,12.13
2022-08-18T04:52:26.986Z,12.30
2022-08-18T04:55:01.968Z,12.13
2022-08-18T04:57:33.009Z,12.20
2022-08-18T05:00:01.362Z,12.20
2022-08-18T05:02:28.333Z,13.03
2022-08-18T05:04:55.232Z,12.57
2022-08-18T05:07:25.689Z,12.87
2022-08-18T05:09:55.150Z,12.90
2022-08-18T05:12:25.984Z,13.40
2022-08-18T05:14:54.042Z,12.57
2022-08-18T05:17:21.069Z,13.20
2022-08-18T05:19:48.568Z,13.23
2022-08-18T05:22:19.701Z,13.23
2022-08-18T05:24:55.833Z,13.00
2022-08-18T05:27:22.663Z,12.97
2022-08-18T05:29:51.686Z,12.80
2022-08-18T05:32:30.526Z,12.53
2022-08-18T05:35:30.273Z,13.23
2022-08-18T05:38:30.204Z,13.50
2022-08-18T05:41:14.565Z,13.03
2022-08-18T05:43:45.982Z,13.00
2022-08-18T05:46:22.039Z,13.27
2022-08-18T05:48:49.858Z,14.60
2022-08-18T05:51:25.017Z,12.73
2022-08-18T05:54:10.892Z,12.93
2022-08-18T05:56:48.130Z,13.30
2022-08-18T05:59:21.402Z,13.07
2022-08-18T06:01:55.889Z,13.70
2022-08-18T06:04:41.435Z,14.53
2022-08-18T06:07:13.429Z,14.07
2022-08-18T06:09:53.769Z,14.10
2022-08-18T06:12:29.278Z,14.23
2022-08-18T06:15:05.901Z,14.43
2022-08-18T06:18:00.553Z,14.50
2022-08-18T06:20:33.545Z,14.33
2022-08-18T06:23:25.672Z,14.07
2022-08-18T06:26:04.338Z,14.50
2022-08-18T06:28:41.717Z,14.57
2022-08-18T06:31:56.763Z,14.47
2022-08-18T06:34:31.301Z,12.43
2022-08-18T06:37:06.240Z,13.97
2022-08-18T06:39:50.908Z,13.23
2022-08-18T06:42:26.396Z,13.90
2022-08-18T06:44:58.076Z,14.10
2022-08-18T06:47:34.907Z,13.37
2022-08-18T06:50:11.265Z,13.43
2022-08-18T06:52:50.961Z,13.30
2022-08-18T06:55:30.874Z,12.87
2022-08-18T06:58:01.443Z,12.07
2022-08-18T07:00:32.913Z,13.00
2022-08-18T07:03:14.489Z,12.77
2022-08-18T07:06:02.198Z,12.40
2022-08-18T07:08:35.665Z,12.43
2022-08-18T07:11:27.939Z,12.83
2022-08-18T07:14:15.468Z,12.77
2022-08-18T07:16:59.575Z,13.60
2022-08-18T07:19:32.076Z,13.53
2022-08-18T07:22:19.111Z,13.43
2022-08-18T07:24:50.841Z,13.43
2022-08-18T07:27:40.660Z,13.60
2022-08-18T07:30:15.343Z,13.83
2022-08-18T07:32:47.627Z,13.43
2022-08-18T07:35:23.927Z,13.17
2022-08-18T07:38:42.733Z,13.47
2022-08-18T07:41:24.668Z,13.50
2022-08-18T07:44:01.895Z,13.40
2022-08-18T07:46:38.233Z,12.80
2022-08-18T07:49:07.138Z,13.50
2022-08-18T07:51:53.337Z,13.77
2022-08-18T07:54:50.717Z,13.20
2022-08-18T07:57:42.685Z,12.77
2022-08-18T08:03:52.290Z,13.30
2022-08-18T08:06:37.817Z,15.13
2022-08-18T08:09:07.445Z,12.90
2022-08-18T08:12:04.715Z,13.73
2022-08-18T08:14:46.963Z,12.63
2022-08-18T08:17:32.660Z,12.40
2022-08-18T08:20:08.679Z,13.10
2022-08-18T08:23:07.705Z,14.13
2022-08-18T08:25:47.638Z,13.53
2022-08-18T08:28:14.754Z,12.57
2022-08-18T08:30:51.780Z,12.13
2022-08-18T08:33:28.436Z,12.57
2022-08-18T08:36:04.682Z,12.73
2022-08-18T08:38:43.162Z,13.20
2022-08-18T08:41:15.405Z,13.00
2022-08-18T08:43:48.001Z,12.57
2022-08-18T08:46:22.856Z,13.23
2022-08-18T08:48:56.637Z,14.77
2022-08-18T08:51:43.315Z,12.60
2022-08-18T08:54:20.752Z,13.20
2022-08-18T08:56:50.567Z,13.17
2022-08-18T08:59:21.875Z,13.03
2022-08-18T09:01:57.076Z,12.20
2022-08-18T09:05:08.549Z,12.70
2022-08-18T09:07:42.479Z,13.00
2022-08-18T09:10:52.419Z,13.00
2022-08-18T09:13:19.303Z,13.20
2022-08-18T09:16:13.904Z,13.00
2022-08-18T09:18:50.890Z,12.57
2022-08-18T09:21:26.397Z,13.10
2022-08-18T09:24:04.662Z,12.90
2022-08-18T09:26:39.098Z,12.53
2022-08-18T09:29:27.154Z,13.30
2022-08-18T09:32:18.864Z,13.47
2022-08-18T09:35:11.649Z,12.67
2022-08-18T09:38:26.042Z,13.10
2022-08-18T09:41:17.193Z,16.23
2022-08-18T09:44:21.694Z,12.80
2022-08-18T09:49:55.492Z,12.60
2022-08-18T09:52:24.473Z,12.70
2022-08-18T09:54:54.158Z,13.13
2022-08-18T09:57:42.630Z,12.67
2022-08-18T10:00:14.702Z,13.30
2022-08-18T10:02:41.914Z,13.67
2022-08-18T10:05:15.890Z,14.97
2022-08-18T10:07:56.220Z,13.87
2022-08-18T10:11:01.084Z,12.80
2022-08-18T10:17:16.006Z,13.30
2022-08-18T10:19:54.613Z,13.07
2022-08-18T10:22:43.547Z,12.37
2022-08-18T10:25:22.887Z,13.23
2022-08-18T10:27:56.902Z,12.73
2022-08-18T10:34:00.502Z,13.00
2022-08-18T10:36:37.337Z,13.47
2022-08-18T10:39:12.150Z,13.40
2022-08-18T10:42:00.351Z,13.17
2022-08-18T10:44:29.777Z,12.97
2022-08-18T10:47:00.099Z,13.17
2022-08-18T10:49:32.060Z,12.03
2022-08-18T10:52:25.582Z,12.77
2022-08-18T10:55:02.769Z,12.47
2022-08-18T10:58:15.384Z,12.57
2022-08-18T11:00:50.489Z,13.37
2022-08-18T11:06:22.387Z,13.40
2022-08-18T11:08:55.378Z,13.83
2022-08-18T11:11:39.415Z,13.63
2022-08-18T11:14:27.617Z,14.00
2022-08-18T11:17:07.032Z,14.17
2022-08-18T11:19:42.026Z,14.40
2022-08-18T11:22:31.136Z,14.03
2022-08-18T11:25:00.247Z,14.13
2022-08-18T11:27:29.900Z,14.50
2022-08-18T11:30:02.008Z,14.33
2022-08-18T11:32:34.622Z,15.07
2022-08-18T11:35:10.925Z,14.13
2022-08-18T11:43:41.749Z,12.93
2022-08-18T11:46:24.181Z,13.67
2022-08-18T11:48:57.342Z,14.77
2022-08-18T11:51:33.467Z,14.63
2022-08-18T11:54:24.733Z,14.50
2022-08-18T11:56:51.975Z,14.87
2022-08-18T11:59:52.919Z,14.33
2022-08-18T12:02:20.649Z,14.20
2022-08-18T12:04:53.500Z,14.87
2022-08-18T12:07:35.971Z,14.10
2022-08-18T12:13:09.412Z,14.90
2022-08-18T12:15:36.631Z,14.83
2022-08-18T12:18:25.911Z,14.57
2022-08-18T12:20:59.465Z,14.77
2022-08-18T12:26:26.843Z,15.13
2022-08-18T12:29:03.212Z,15.17
2022-08-18T12:31:42.465Z,15.13
2022-08-18T12:37:14.338Z,15.73
2022-08-18T12:39:54.212Z,16.20
2022-08-18T12:42:22.071Z,15.73
2022-08-18T12:44:49.317Z,16.10
2022-08-18T12:47:25.123Z,15.73
2022-08-18T12:49:58.202Z,16.83
2022-08-18T12:52:28.204Z,16.13
2022-08-18T12:54:55.413Z,16.13
2022-08-18T12:57:27.745Z,17.17
2022-08-18T13:00:18.480Z,16.47
2022-08-18T13:02:45.709Z,16.73
2022-08-18T13:05:12.638Z,15.90
2022-08-18T13:07:39.548Z,15.97
2022-08-18T13:10:07.213Z,15.90
2022-08-18T13:12:48.669Z,15.53
2022-08-18T13:15:16.778Z,15.63
2022-08-18T13:17:46.796Z,14.87
2022-08-18T13:20:17.178Z,15.20
2022-08-18T13:22:44.342Z,14.80
2022-08-18T13:25:28.606Z,15.53
2022-08-18T13:28:00.812Z,16.10
2022-08-18T13:30:31.000Z,16.40
2022-08-18T13:33:05.284Z,15.20
2022-08-18T13:35:52.021Z,15.77
2022-08-18T13:38:27.318Z,15.93
2022-08-18T13:40:59.156Z,15.40
2022-08-18T13:43:52.327Z,14.93
2022-08-18T13:46:24.065Z,15.20
2022-08-18T13:49:02.361Z,15.67
2022-08-18T13:51:30.919Z,16.00
2022-08-18T13:54:17.797Z,16.37
2022-08-18T13:56:52.089Z,16.73
2022-08-18T13:59:21.833Z,16.73
2022-08-18T14:01:53.388Z,15.07
2022-08-18T14:04:22.390Z,15.57
2022-08-18T14:06:56.736Z,14.47
2022-08-18T14:09:36.603Z,15.17
2022-08-18T14:12:15.910Z,15.13
2022-08-18T14:14:51.943Z,15.33
2022-08-18T14:17:22.276Z,15.20
2022-08-18T14:20:15.536Z,15.40
2022-08-18T14:23:13.555Z,15.27
2022-08-18T14:25:59.740Z,15.20
2022-08-18T14:28:28.461Z,16.20
2022-08-18T14:30:56.633Z,15.17
2022-08-18T14:33:49.462Z,16.13
2022-08-18T14:36:14.296Z,14.93
2022-08-18T14:38:42.197Z,14.47
2022-08-18T14:41:13.696Z,14.93
2022-08-18T14:44:12.524Z,15.30
2022-08-18T14:46:32.556Z,14.17
2022-08-18T14:49:04.153Z,14.47
2022-08-18T14:51:33.420Z,14.73
2022-08-18T14:54:01.444Z,14.70
2022-08-18T14:56:29.576Z,15.97
2022-08-18T14:59:00.062Z,13.97
2022-08-18T15:01:27.706Z,14.40
2022-08-18T15:04:18.378Z,14.53
2022-08-18T15:06:55.891Z,14.07
2022-08-18T15:09:23.935Z,14.77
2022-08-18T15:11:51.364Z,14.20
2022-08-18T15:14:21.421Z,15.00
2022-08-18T15:17:00.228Z,14.17
2022-08-18T15:19:58.358Z,15.10
2022-08-18T15:22:33.085Z,15.00
2022-08-18T15:25:18.469Z,15.00
2022-08-18T15:27:52.443Z,14.07
2022-08-18T15:30:20.585Z,15.47
2022-08-18T15:32:49.714Z,15.07
2022-08-18T15:35:19.613Z,14.80
2022-08-18T15:37:51.096Z,15.60
2022-08-18T15:40:31.289Z,14.50
2022-08-18T15:43:09.711Z,14.80
2022-08-18T15:45:51.044Z,14.57
2022-08-18T15:48:26.187Z,14.40
2022-08-18T15:50:53.694Z,14.27
2022-08-18T15:53:24.502Z,14.00
2022-08-18T15:55:51.528Z,14.17
2022-08-18T15:58:22.388Z,13.73
2022-08-18T16:00:52.357Z,14.40
2022-08-18T16:03:21.719Z,14.30
2022-08-18T16:05:52.829Z,14.30
2022-08-18T16:08:23.699Z,14.83
2022-08-18T16:10:51.371Z,14.67
2022-08-18T16:13:19.349Z,14.50
2022-08-18T16:15:48.366Z,14.40
2022-08-18T16:18:18.023Z,14.40
2022-08-18T16:20:45.326Z,14.80
2022-08-18T16:23:13.412Z,14.70
2022-08-18T16:25:44.126Z,14.00
2022-08-18T16:28:13.438Z,14.03
2022-08-18T16:30:40.659Z,13.77
2022-08-18T16:33:07.678Z,13.63
2022-08-18T16:35:35.783Z,13.73
2022-08-18T16:38:05.678Z,13.53
2022-08-18T16:40:32.758Z,13.53
2022-08-18T16:43:00.640Z,13.77
2022-08-18T16:45:28.935Z,14.43
2022-08-18T16:47:55.965Z,15.00
2022-08-18T16:50:25.050Z,12.77
2022-08-18T16:52:52.489Z,12.83
2022-08-18T16:55:20.033Z,12.87
2022-08-18T16:58:05.475Z,13.73
2022-08-18T17:00:54.847Z,13.47
2022-08-18T17:03:44.472Z,12.37
2022-08-18T17:06:13.985Z,13.00
2022-08-18T17:08:42.421Z,13.90
2022-08-18T17:11:16.236Z,13.53
2022-08-18T17:13:44.617Z,13.70
2022-08-18T17:16:12.045Z,12.77
2022-08-18T17:18:39.794Z,12.20
2022-08-18T17:21:09.181Z,12.57
2022-08-18T17:23:38.998Z,12.37
2022-08-18T17:26:17.478Z,12.17
2022-08-18T17:28:54.489Z,11.77
2022-08-18T17:31:24.731Z,12.57
2022-08-18T17:33:57.289Z,12.13
2022-08-18T17:36:41.174Z,12.57
2022-08-18T17:39:12.405Z,12.73
2022-08-18T17:42:02.005Z,12.43
2022-08-18T17:44:31.420Z,12.53
2022-08-18T17:47:02.375Z,12.80
2022-08-18T17:49:54.198Z,12.70
2022-08-18T17:52:52.679Z,12.80
2022-08-18T17:55:31.446Z,12.47
2022-08-18T17:58:06.864Z,12.63
2022-08-18T18:00:33.800Z,13.47
2022-08-18T18:03:01.385Z,12.77
2022-08-18T18:05:37.492Z,12.30
2022-08-18T18:08:05.004Z,12.03
2022-08-18T18:10:56.444Z,12.73
2022-08-18T18:13:32.653Z,12.53
2022-08-18T18:16:19.403Z,12.33
2022-08-18T18:18:56.535Z,12.00
2022-08-18T18:21:53.556Z,12.60
2022-08-18T18:24:24.050Z,12.30
2022-08-18T18:26:52.584Z,12.27
2022-08-18T18:29:37.964Z,11.77
2022-08-18T18:32:25.792Z,12.27
2022-08-18T18:35:22.866Z,12.37
2022-08-18T18:38:01.249Z,12.57
2022-08-18T18:40:37.987Z,12.80
2022-08-18T18:43:29.003Z,12.63
2022-08-18T18:46:18.612Z,13.27
2022-08-18T18:48:54.556Z,12.13
2022-08-18T18:51:50.689Z,11.70
2022-08-18T18:54:36.108Z,12.17
2022-08-18T18:57:10.878Z,12.00
2022-08-18T19:00:21.122Z,12.03
2022-08-18T19:03:03.133Z,12.20
2022-08-18T19:05:30.133Z,12.27
2022-08-18T19:08:04.008Z,12.80
2022-08-18T19:11:07.607Z,12.30
2022-08-18T19:13:41.867Z,12.33
2022-08-18T19:16:29.017Z,12.30
2022-08-18T19:19:37.371Z,12.10
2022-08-18T19:22:11.496Z,12.13
2022-08-18T19:24:50.745Z,12.07
2022-08-18T19:27:25.366Z,11.97
2022-08-18T19:29:56.195Z,11.80
2022-08-18T19:32:33.906Z,12.80
2022-08-18T19:35:04.466Z,11.60
2022-08-18T19:37:57.224Z,12.60
2022-08-18T19:40:31.728Z,11.70
2022-08-18T19:43:06.492Z,12.37
2022-08-18T19:45:40.469Z,11.93
2022-08-18T19:48:27.226Z,12.27
2022-08-18T19:51:05.644Z,12.30
2022-08-18T19:53:52.640Z,11.90
2022-08-18T19:56:47.501Z,12.50
2022-08-18T19:59:36.011Z,12.13
2022-08-18T20:02:28.956Z,12.20
2022-08-18T20:05:21.660Z,12.20
2022-08-18T20:08:26.173Z,12.70
2022-08-18T20:11:17.348Z,12.33
2022-08-18T20:13:46.083Z,12.23
2022-08-18T20:16:43.167Z,12.60
2022-08-18T20:19:42.651Z,12.50
2022-08-18T20:22:27.947Z,12.50
2022-08-18T20:25:11.160Z,12.43
2022-08-18T20:27:42.351Z,12.40
2022-08-18T20:30:29.556Z,12.53
2022-08-18T20:33:17.739Z,12.57
2022-08-18T20:36:08.996Z,12.50
2022-08-18T20:38:38.137Z,12.43
2022-08-18T20:41:30.141Z,12.50
2022-08-18T20:44:29.326Z,12.60
2022-08-18T20:47:18.231Z,12.33
2022-08-18T20:50:07.758Z,12.27
2022-08-18T20:52:49.041Z,12.07
2022-08-18T20:55:41.387Z,12.17
2022-08-18T20:58:15.502Z,12.33
2022-08-18T21:00:47.173Z,12.60
2022-08-18T21:03:16.010Z,13.00
2022-08-18T21:05:45.543Z,12.63
2022-08-18T21:08:16.444Z,12.77
2022-08-18T21:10:58.057Z,12.67
2022-08-18T21:13:42.812Z,12.70
2022-08-18T21:16:38.674Z,12.63
2022-08-18T21:19:17.998Z,12.40
2022-08-18T21:21:49.416Z,12.90
2022-08-18T21:24:40.709Z,12.70
2022-08-18T21:27:12.567Z,11.93
2022-08-18T21:29:47.038Z,12.83
2022-08-18T21:32:25.029Z,13.23
2022-08-18T21:34:52.151Z,12.60
2022-08-18T21:37:19.988Z,12.73
2022-08-18T21:39:59.534Z,12.50
2022-08-18T21:42:42.668Z,13.00
2022-08-18T21:45:23.341Z,12.67
2022-08-18T21:47:56.830Z,12.60
2022-08-18T21:50:27.876Z,12.70
2022-08-18T21:53:18.064Z,12.07
2022-08-18T21:55:51.378Z,12.30
2022-08-18T21:58:32.595Z,12.23
2022-08-18T22:01:21.876Z,12.33
2022-08-18T22:04:21.969Z,12.30
2022-08-18T22:06:52.409Z,12.47
2022-08-18T22:09:42.033Z,12.40
2022-08-18T22:12:32.469Z,12.60
2022-08-18T22:15:13.093Z,12.27
2022-08-18T22:17:59.785Z,12.47
2022-08-18T22:20:49.524Z,12.50
2022-08-18T22:23:34.793Z,12.13
2022-08-18T22:26:29.716Z,11.80
2022-08-18T22:29:13.186Z,12.10
2022-08-18T22:31:44.413Z,12.13
2022-08-18T22:34:28.608Z,12.20
2022-08-18T22:37:01.973Z,12.60
2022-08-18T22:39:33.765Z,13.30
2022-08-18T22:42:01.312Z,12.10
2022-08-18T22:44:28.376Z,11.87
2022-08-18T22:46:55.732Z,12.10
2022-08-18T22:49:24.287Z,11.37
2022-08-18T22:51:54.430Z,11.27
2022-08-18T22:54:23.160Z,11.13
2022-08-18T22:56:56.441Z,11.47
2022-08-18T22:59:26.944Z,11.07
2022-08-18T23:01:54.777Z,11.50
2022-08-18T23:04:23.661Z,11.60
2022-08-18T23:06:53.794Z,11.43
2022-08-18T23:09:30.515Z,11.20
2022-08-18T23:12:01.449Z,11.27
2022-08-18T23:14:32.299Z,11.27
2022-08-18T23:17:00.932Z,11.30
2022-08-18T23:19:29.221Z,11.60
2022-08-18T23:21:56.159Z,11.57
2022-08-18T23:24:23.116Z,11.70
2022-08-18T23:26:50.043Z,12.07
2022-08-18T23:29:18.037Z,11.53
2022-08-18T23:31:45.436Z,11.17
2022-08-18T23:34:15.499Z,12.00
2022-08-18T23:36:45.564Z,11.37
2022-08-18T23:39:14.546Z,11.40
2022-08-18T23:41:41.553Z,11.60
2022-08-18T23:44:08.481Z,11.50
2022-08-18T23:46:35.935Z,11.20
2022-08-18T23:49:04.802Z,11.17
2022-08-18T23:51:44.225Z,10.93
2022-08-18T23:54:18.411Z,11.20
2022-08-18T23:56:45.872Z,10.60
2022-08-18T23:59:13.940Z,11.03
